SBGO/GYN METAR and TAF weather

Enter ICAO airport designator
Station Type Date Time Source
SBGO METAR 2019/04/19 11:00 UTC NOAA

SBGO 191100Z 14004KT CAVOK 22/20 Q1018


Station Type Date Time Source
SBGO Decoded METAR 2019/04/19 11:00 UTC NOAA

Goiania Aeroporto , Brazil (SBGO) 16-38S 049-13W
Apr 19, 2019 - 07:00 AM EDT / 2019.04.19 1100 UTC
Wind: from the SE (140 degrees) at 5 MPH (4 KT):0
Visibility: greater than 7 mile(s):0
Temperature: 71 F (22 C)
Dew Point: 68 F (20 C)
Relative Humidity: 88%
Pressure (altimeter): 30.06 in. Hg (1018 hPa)
ob: SBGO 191100Z 14004KT CAVOK 22/20 Q1018
cycle: 11

Station Type Date Time Source
SBGO TAF 2019/04/19 12:33 UTC NOAA

TAF TAF SBGO 190800Z 1912/2012 03005KT 7000 SCT040 TX30/1919Z TN21/2009Z
BECMG 1918/1920 36005KT FEW040
BECMG 2000/2002 12005KT CAVOK
BECMG 2006/20 08 11005KT
RMK PDE

Example: see airport list